sensor_id;sensor_type;location;lat;lon;timestamp;temperature;humidity
20174;DHT22;10246;50.620;7.232;2023-03-03T00:00:05;1.90;1.00
20174;DHT22;10246;50.620;7.232;2023-03-03T00:02:32;1.80;1.00
20174;DHT22;10246;50.620;7.232;2023-03-03T00:05:00;1.80;1.00
20174;DHT22;10246;50.620;7.232;2023-03-03T00:07:26;1.80;1.00
20174;DHT22;10246;50.620;7.232;2023-03-03T00:09:53;1.80;1.00
20174;DHT22;10246;50.620;7.232;2023-03-03T00:12:23;1.80;1.00
20174;DHT22;10246;50.620;7.232;2023-03-03T00:14:50;1.80;1.00
20174;DHT22;10246;50.620;7.232;2023-03-03T00:17:20;1.90;1.00
20174;DHT22;10246;50.620;7.232;2023-03-03T00:19:48;1.90;1.00
20174;DHT22;10246;50.620;7.232;2023-03-03T00:22:26;2.00;1.00
20174;DHT22;10246;50.620;7.232;2023-03-03T00:24:54;1.80;1.00
20174;DHT22;10246;50.620;7.232;2023-03-03T00:27:28;1.70;1.00
20174;DHT22;10246;50.620;7.232;2023-03-03T00:29:57;1.70;1.00
20174;DHT22;10246;50.620;7.232;2023-03-03T00:32:26;1.80;1.00
20174;DHT22;10246;50.620;7.232;2023-03-03T00:34:54;1.70;1.00
20174;DHT22;10246;50.620;7.232;2023-03-03T00:37:27;1.70;1.00
20174;DHT22;10246;50.620;7.232;2023-03-03T00:39:58;1.70;1.00
20174;DHT22;10246;50.620;7.232;2023-03-03T00:42:28;1.60;1.00
20174;DHT22;10246;50.620;7.232;2023-03-03T00:44:58;1.60;1.00
20174;DHT22;10246;50.620;7.232;2023-03-03T00:47:28;1.70;1.00
20174;DHT22;10246;50.620;7.232;2023-03-03T00:50:15;1.60;1.00
20174;DHT22;10246;50.620;7.232;2023-03-03T00:52:53;1.60;1.00
20174;DHT22;10246;50.620;7.232;2023-03-03T00:55:22;1.60;1.00
20174;DHT22;10246;50.620;7.232;2023-03-03T00:57:49;1.60;1.00
20174;DHT22;10246;50.620;7.232;2023-03-03T01:00:16;1.60;1.00
20174;DHT22;10246;50.620;7.232;2023-03-03T01:02:43;1.60;1.00
20174;DHT22;10246;50.620;7.232;2023-03-03T01:05:14;1.50;1.00
20174;DHT22;10246;50.620;7.232;2023-03-03T01:07:41;1.50;1.00
20174;DHT22;10246;50.620;7.232;2023-03-03T01:10:11;1.40;1.00
20174;DHT22;10246;50.620;7.232;2023-03-03T01:12:38;1.40;1.00
20174;DHT22;10246;50.620;7.232;2023-03-03T01:15:07;1.30;1.00
20174;DHT22;10246;50.620;7.232;2023-03-03T01:17:34;1.40;1.00
20174;DHT22;10246;50.620;7.232;2023-03-03T01:20:01;1.30;1.00
20174;DHT22;10246;50.620;7.232;2023-03-03T01:22:28;1.30;1.00
20174;DHT22;10246;50.620;7.232;2023-03-03T01:24:55;1.30;1.00
20174;DHT22;10246;50.620;7.232;2023-03-03T01:27:23;1.20;1.00
20174;DHT22;10246;50.620;7.232;2023-03-03T01:29:50;1.20;1.00
20174;DHT22;10246;50.620;7.232;2023-03-03T01:32:17;1.20;1.00
20174;DHT22;10246;50.620;7.232;2023-03-03T01:34:44;1.20;1.00
20174;DHT22;10246;50.620;7.232;2023-03-03T01:37:10;1.20;1.00
20174;DHT22;10246;50.620;7.232;2023-03-03T01:39:37;1.30;1.00
20174;DHT22;10246;50.620;7.232;2023-03-03T01:42:04;1.20;1.00
20174;DHT22;10246;50.620;7.232;2023-03-03T01:44:33;1.20;1.00
20174;DHT22;10246;50.620;7.232;2023-03-03T01:47:04;1.10;1.00
20174;DHT22;10246;50.620;7.232;2023-03-03T01:49:35;1.00;1.00
20174;DHT22;10246;50.620;7.232;2023-03-03T01:52:10;1.10;1.00
20174;DHT22;10246;50.620;7.232;2023-03-03T01:54:40;1.10;1.00
20174;DHT22;10246;50.620;7.232;2023-03-03T01:57:12;1.10;1.00
20174;DHT22;10246;50.620;7.232;2023-03-03T01:59:45;1.10;1.00
20174;DHT22;10246;50.620;7.232;2023-03-03T02:02:13;1.10;1.00
20174;DHT22;10246;50.620;7.232;2023-03-03T02:04:39;1.00;1.00
20174;DHT22;10246;50.620;7.232;2023-03-03T02:07:08;1.00;1.00
20174;DHT22;10246;50.620;7.232;2023-03-03T02:09:44;0.90;1.00
20174;DHT22;10246;50.620;7.232;2023-03-03T02:12:15;0.90;1.00
20174;DHT22;10246;50.620;7.232;2023-03-03T02:14:44;0.90;1.00
20174;DHT22;10246;50.620;7.232;2023-03-03T02:17:11;0.90;1.00
20174;DHT22;10246;50.620;7.232;2023-03-03T02:19:45;1.00;1.00
20174;DHT22;10246;50.620;7.232;2023-03-03T02:22:16;1.00;1.00
20174;DHT22;10246;50.620;7.232;2023-03-03T02:24:50;0.90;1.00
20174;DHT22;10246;50.620;7.232;2023-03-03T02:27:20;0.90;1.00
20174;DHT22;10246;50.620;7.232;2023-03-03T02:29:47;0.80;1.00
20174;DHT22;10246;50.620;7.232;2023-03-03T02:32:13;0.80;1.00
20174;DHT22;10246;50.620;7.232;2023-03-03T02:34:46;0.80;1.00
20174;DHT22;10246;50.620;7.232;2023-03-03T02:37:13;0.70;1.00
20174;DHT22;10246;50.620;7.232;2023-03-03T02:39:40;0.70;1.00
20174;DHT22;10246;50.620;7.232;2023-03-03T02:42:10;0.80;1.00
20174;DHT22;10246;50.620;7.232;2023-03-03T02:44:40;0.80;1.00
20174;DHT22;10246;50.620;7.232;2023-03-03T02:47:07;0.80;1.00
20174;DHT22;10246;50.620;7.232;2023-03-03T02:49:35;0.70;1.00
20174;DHT22;10246;50.620;7.232;2023-03-03T02:52:04;0.70;1.00
20174;DHT22;10246;50.620;7.232;2023-03-03T02:54:34;0.70;1.00
20174;DHT22;10246;50.620;7.232;2023-03-03T02:57:01;0.70;1.00
20174;DHT22;10246;50.620;7.232;2023-03-03T02:59:28;0.70;1.00
20174;DHT22;10246;50.620;7.232;2023-03-03T03:01:56;0.70;1.00
20174;DHT22;10246;50.620;7.232;2023-03-03T03:04:24;0.70;1.00
20174;DHT22;10246;50.620;7.232;2023-03-03T03:06:52;0.80;1.40
20174;DHT22;10246;50.620;7.232;2023-03-03T03:09:21;0.90;3.60
20174;DHT22;10246;50.620;7.232;2023-03-03T03:11:48;1.10;4.90
20174;DHT22;10246;50.620;7.232;2023-03-03T03:14:15;1.10;3.90
20174;DHT22;10246;50.620;7.232;2023-03-03T03:16:42;1.00;3.10
20174;DHT22;10246;50.620;7.232;2023-03-03T03:19:10;1.10;3.30
20174;DHT22;10246;50.620;7.232;2023-03-03T03:21:37;1.10;3.80
20174;DHT22;10246;50.620;7.232;2023-03-03T03:24:05;1.10;3.80
20174;DHT22;10246;50.620;7.232;2023-03-03T03:26:31;1.10;3.90
20174;DHT22;10246;50.620;7.232;2023-03-03T03:28:58;1.10;4.60
20174;DHT22;10246;50.620;7.232;2023-03-03T03:31:26;1.20;5.30
20174;DHT22;10246;50.620;7.232;2023-03-03T03:33:53;1.20;5.30
20174;DHT22;10246;50.620;7.232;2023-03-03T03:36:21;1.20;5.40
20174;DHT22;10246;50.620;7.232;2023-03-03T03:38:48;1.30;5.80
20174;DHT22;10246;50.620;7.232;2023-03-03T03:41:14;1.30;6.20
20174;DHT22;10246;50.620;7.232;2023-03-03T03:43:43;1.40;6.70
20174;DHT22;10246;50.620;7.232;2023-03-03T03:46:10;1.40;6.30
20174;DHT22;10246;50.620;7.232;2023-03-03T03:48:37;1.40;6.30
20174;DHT22;10246;50.620;7.232;2023-03-03T03:51:04;1.40;6.20
20174;DHT22;10246;50.620;7.232;2023-03-03T03:53:35;1.40;5.90
20174;DHT22;10246;50.620;7.232;2023-03-03T03:56:02;1.50;5.60
20174;DHT22;10246;50.620;7.232;2023-03-03T03:58:28;1.50;6.00
20174;DHT22;10246;50.620;7.232;2023-03-03T04:01:01;1.60;6.00
20174;DHT22;10246;50.620;7.232;2023-03-03T04:03:28;1.60;6.10
20174;DHT22;10246;50.620;7.232;2023-03-03T04:05:55;1.60;6.50
20174;DHT22;10246;50.620;7.232;2023-03-03T04:08:22;1.70;6.30
20174;DHT22;10246;50.620;7.232;2023-03-03T04:10:50;1.70;6.40
20174;DHT22;10246;50.620;7.232;2023-03-03T04:13:17;1.80;6.20
20174;DHT22;10246;50.620;7.232;2023-03-03T04:15:43;1.70;7.00
20174;DHT22;10246;50.620;7.232;2023-03-03T04:18:10;1.80;6.60
20174;DHT22;10246;50.620;7.232;2023-03-03T04:20:39;1.80;6.80
20174;DHT22;10246;50.620;7.232;2023-03-03T04:23:05;1.80;7.20
20174;DHT22;10246;50.620;7.232;2023-03-03T04:25:32;1.80;7.10
20174;DHT22;10246;50.620;7.232;2023-03-03T04:28:00;1.80;7.30
20174;DHT22;10246;50.620;7.232;2023-03-03T04:30:27;1.80;7.60
20174;DHT22;10246;50.620;7.232;2023-03-03T04:32:54;1.80;8.00
20174;DHT22;10246;50.620;7.232;2023-03-03T04:35:21;1.90;7.40
20174;DHT22;10246;50.620;7.232;2023-03-03T04:37:48;1.80;7.70
20174;DHT22;10246;50.620;7.232;2023-03-03T04:40:14;1.90;8.10
20174;DHT22;10246;50.620;7.232;2023-03-03T04:42:42;1.80;8.00
20174;DHT22;10246;50.620;7.232;2023-03-03T04:45:11;1.80;8.00
20174;DHT22;10246;50.620;7.232;2023-03-03T04:47:38;1.90;8.20
20174;DHT22;10246;50.620;7.232;2023-03-03T04:50:06;2.00;7.80
20174;DHT22;10246;50.620;7.232;2023-03-03T04:52:33;1.90;8.10
20174;DHT22;10246;50.620;7.232;2023-03-03T04:55:00;1.90;8.10
20174;DHT22;10246;50.620;7.232;2023-03-03T04:57:27;1.90;8.10
20174;DHT22;10246;50.620;7.232;2023-03-03T04:59:53;1.90;8.10
20174;DHT22;10246;50.620;7.232;2023-03-03T05:02:22;1.90;8.10
20174;DHT22;10246;50.620;7.232;2023-03-03T05:04:48;1.90;8.10
20174;DHT22;10246;50.620;7.232;2023-03-03T05:07:15;1.90;8.10
20174;DHT22;10246;50.620;7.232;2023-03-03T05:09:43;1.90;8.10
20174;DHT22;10246;50.620;7.232;2023-03-03T05:12:10;1.90;8.10
20174;DHT22;10246;50.620;7.232;2023-03-03T05:14:37;1.90;8.40
20174;DHT22;10246;50.620;7.232;2023-03-03T05:17:03;1.90;8.20
20174;DHT22;10246;50.620;7.232;2023-03-03T05:19:32;2.00;8.20
20174;DHT22;10246;50.620;7.232;2023-03-03T05:21:59;2.00;8.20
20174;DHT22;10246;50.620;7.232;2023-03-03T05:24:26;1.90;8.70
20174;DHT22;10246;50.620;7.232;2023-03-03T05:26:53;1.90;8.50
20174;DHT22;10246;50.620;7.232;2023-03-03T05:29:20;1.90;9.00
20174;DHT22;10246;50.620;7.232;2023-03-03T05:31:46;1.80;8.80
20174;DHT22;10246;50.620;7.232;2023-03-03T05:34:14;1.80;8.90
20174;DHT22;10246;50.620;7.232;2023-03-03T05:36:42;1.80;9.10
20174;DHT22;10246;50.620;7.232;2023-03-03T05:39:09;2.00;8.70
20174;DHT22;10246;50.620;7.232;2023-03-03T05:41:35;2.00;8.20
20174;DHT22;10246;50.620;7.232;2023-03-03T05:44:02;2.00;8.20
20174;DHT22;10246;50.620;7.232;2023-03-03T05:46:29;2.00;8.20
20174;DHT22;10246;50.620;7.232;2023-03-03T05:48:56;1.90;8.10
20174;DHT22;10246;50.620;7.232;2023-03-03T05:51:23;1.90;8.10
20174;DHT22;10246;50.620;7.232;2023-03-03T05:53:51;1.90;8.90
20174;DHT22;10246;50.620;7.232;2023-03-03T05:56:18;1.90;9.10
20174;DHT22;10246;50.620;7.232;2023-03-03T05:58:45;1.90;9.60
20174;DHT22;10246;50.620;7.232;2023-03-03T06:01:12;1.90;9.30
20174;DHT22;10246;50.620;7.232;2023-03-03T06:03:39;2.00;9.40
20174;DHT22;10246;50.620;7.232;2023-03-03T06:06:06;2.00;9.40
20174;DHT22;10246;50.620;7.232;2023-03-03T06:08:34;2.00;9.20
20174;DHT22;10246;50.620;7.232;2023-03-03T06:11:02;2.00;8.80
20174;DHT22;10246;50.620;7.232;2023-03-03T06:13:29;1.90;8.90
20174;DHT22;10246;50.620;7.232;2023-03-03T06:15:56;1.90;9.20
20174;DHT22;10246;50.620;7.232;2023-03-03T06:18:23;1.90;9.60
20174;DHT22;10246;50.620;7.232;2023-03-03T06:20:51;1.90;9.40
20174;DHT22;10246;50.620;7.232;2023-03-03T06:23:18;1.90;9.80
20174;DHT22;10246;50.620;7.232;2023-03-03T06:25:45;1.90;10.00
20174;DHT22;10246;50.620;7.232;2023-03-03T06:28:13;2.00;10.00
20174;DHT22;10246;50.620;7.232;2023-03-03T06:30:40;2.00;10.40
20174;DHT22;10246;50.620;7.232;2023-03-03T06:33:07;2.10;8.60
20174;DHT22;10246;50.620;7.232;2023-03-03T06:35:34;2.10;8.60
20174;DHT22;10246;50.620;7.232;2023-03-03T06:38:01;2.10;8.20
20174;DHT22;10246;50.620;7.232;2023-03-03T06:40:27;2.10;8.20
20174;DHT22;10246;50.620;7.232;2023-03-03T06:42:54;2.10;8.20
20174;DHT22;10246;50.620;7.232;2023-03-03T06:45:23;2.10;8.20
20174;DHT22;10246;50.620;7.232;2023-03-03T06:47:49;2.10;8.20
20174;DHT22;10246;50.620;7.232;2023-03-03T06:50:18;2.10;8.20
20174;DHT22;10246;50.620;7.232;2023-03-03T06:52:45;2.20;8.30
20174;DHT22;10246;50.620;7.232;2023-03-03T06:55:17;2.20;8.30
20174;DHT22;10246;50.620;7.232;2023-03-03T06:57:47;2.10;8.20
20174;DHT22;10246;50.620;7.232;2023-03-03T07:00:17;2.10;8.20
20174;DHT22;10246;50.620;7.232;2023-03-03T07:02:46;2.10;8.20
20174;DHT22;10246;50.620;7.232;2023-03-03T07:05:15;2.10;8.20
20174;DHT22;10246;50.620;7.232;2023-03-03T07:07:43;2.10;8.20
20174;DHT22;10246;50.620;7.232;2023-03-03T07:10:19;2.10;8.30
20174;DHT22;10246;50.620;7.232;2023-03-03T07:12:47;2.20;8.30
20174;DHT22;10246;50.620;7.232;2023-03-03T07:15:15;2.20;8.20
20174;DHT22;10246;50.620;7.232;2023-03-03T07:17:46;2.20;7.80
20174;DHT22;10246;50.620;7.232;2023-03-03T07:20:18;2.20;7.90
20174;DHT22;10246;50.620;7.232;2023-03-03T07:22:45;2.20;7.50
20174;DHT22;10246;50.620;7.232;2023-03-03T07:25:20;2.10;7.70
20174;DHT22;10246;50.620;7.232;2023-03-03T07:27:47;2.20;7.40
20174;DHT22;10246;50.620;7.232;2023-03-03T07:30:23;2.20;7.20
20174;DHT22;10246;50.620;7.232;2023-03-03T07:32:53;2.20;6.90
20174;DHT22;10246;50.620;7.232;2023-03-03T07:35:36;2.20;6.90
20174;DHT22;10246;50.620;7.232;2023-03-03T07:38:20;2.20;7.20
20174;DHT22;10246;50.620;7.232;2023-03-03T07:40:50;2.30;6.80
20174;DHT22;10246;50.620;7.232;2023-03-03T07:43:34;2.40;6.30
20174;DHT22;10246;50.620;7.232;2023-03-03T07:49:20;2.40;5.80
20174;DHT22;10246;50.620;7.232;2023-03-03T07:51:47;2.50;5.10
20174;DHT22;10246;50.620;7.232;2023-03-03T07:54:28;2.50;4.20
20174;DHT22;10246;50.620;7.232;2023-03-03T07:56:56;2.40;4.20
20174;DHT22;10246;50.620;7.232;2023-03-03T07:59:26;2.40;4.20
20174;DHT22;10246;50.620;7.232;2023-03-03T08:01:55;2.30;5.00
20174;DHT22;10246;50.620;7.232;2023-03-03T08:04:27;2.30;5.60
20174;DHT22;10246;50.620;7.232;2023-03-03T08:06:55;2.30;5.20
20174;DHT22;10246;50.620;7.232;2023-03-03T08:09:30;2.40;4.80
20174;DHT22;10246;50.620;7.232;2023-03-03T08:12:30;2.40;5.20
20174;DHT22;10246;50.620;7.232;2023-03-03T08:15:20;2.40;5.30
20174;DHT22;10246;50.620;7.232;2023-03-03T08:17:49;2.40;4.60
20174;DHT22;10246;50.620;7.232;2023-03-03T08:20:55;2.40;4.80
20174;DHT22;10246;50.620;7.232;2023-03-03T08:23:22;2.40;4.80
20174;DHT22;10246;50.620;7.232;2023-03-03T08:25:49;2.40;4.50
20174;DHT22;10246;50.620;7.232;2023-03-03T08:28:17;2.30;4.90
20174;DHT22;10246;50.620;7.232;2023-03-03T08:30:45;2.30;5.20
20174;DHT22;10246;50.620;7.232;2023-03-03T08:33:13;2.30;5.80
20174;DHT22;10246;50.620;7.232;2023-03-03T08:35:40;2.30;5.30
20174;DHT22;10246;50.620;7.232;2023-03-03T08:38:09;2.30;5.90
20174;DHT22;10246;50.620;7.232;2023-03-03T08:40:36;2.40;5.50
20174;DHT22;10246;50.620;7.232;2023-03-03T08:43:03;2.40;5.50
20174;DHT22;10246;50.620;7.232;2023-03-03T08:45:31;2.30;5.50
20174;DHT22;10246;50.620;7.232;2023-03-03T08:47:57;2.30;5.10
20174;DHT22;10246;50.620;7.232;2023-03-03T08:50:26;2.30;4.90
20174;DHT22;10246;50.620;7.232;2023-03-03T08:52:53;2.20;5.70
20174;DHT22;10246;50.620;7.232;2023-03-03T08:55:21;2.10;6.40
20174;DHT22;10246;50.620;7.232;2023-03-03T08:57:48;2.10;6.20
20174;DHT22;10246;50.620;7.232;2023-03-03T09:00:17;2.10;6.60
20174;DHT22;10246;50.620;7.232;2023-03-03T09:02:52;2.20;6.80
20174;DHT22;10246;50.620;7.232;2023-03-03T09:05:20;2.20;6.70
20174;DHT22;10246;50.620;7.232;2023-03-03T09:07:48;2.20;6.60
20174;DHT22;10246;50.620;7.232;2023-03-03T09:10:18;2.20;6.80
20174;DHT22;10246;50.620;7.232;2023-03-03T09:12:47;2.20;6.80
20174;DHT22;10246;50.620;7.232;2023-03-03T09:15:18;2.30;6.00
20174;DHT22;10246;50.620;7.232;2023-03-03T09:17:46;2.30;6.30
20174;DHT22;10246;50.620;7.232;2023-03-03T09:20:30;2.30;6.80
20174;DHT22;10246;50.620;7.232;2023-03-03T09:22:58;2.40;7.00
20174;DHT22;10246;50.620;7.232;2023-03-03T09:25:30;2.50;5.90
20174;DHT22;10246;50.620;7.232;2023-03-03T09:28:00;2.50;5.50
20174;DHT22;10246;50.620;7.232;2023-03-03T09:30:37;2.50;5.10
20174;DHT22;10246;50.620;7.232;2023-03-03T09:33:22;2.50;5.40
20174;DHT22;10246;50.620;7.232;2023-03-03T09:35:51;2.50;5.00
20174;DHT22;10246;50.620;7.232;2023-03-03T09:38:26;2.50;5.50
20174;DHT22;10246;50.620;7.232;2023-03-03T09:41:12;2.50;5.40
20174;DHT22;10246;50.620;7.232;2023-03-03T09:43:48;2.40;5.40
20174;DHT22;10246;50.620;7.232;2023-03-03T09:46:25;2.40;5.60
20174;DHT22;10246;50.620;7.232;2023-03-03T09:49:02;2.30;5.60
20174;DHT22;10246;50.620;7.232;2023-03-03T09:52:00;2.30;5.80
20174;DHT22;10246;50.620;7.232;2023-03-03T09:54:42;2.30;6.30
20174;DHT22;10246;50.620;7.232;2023-03-03T09:57:15;2.40;5.80
20174;DHT22;10246;50.620;7.232;2023-03-03T09:59:56;2.40;5.30
20174;DHT22;10246;50.620;7.232;2023-03-03T10:02:36;2.40;5.90
20174;DHT22;10246;50.620;7.232;2023-03-03T10:05:25;2.40;5.90
20174;DHT22;10246;50.620;7.232;2023-03-03T10:08:09;2.50;6.00
20174;DHT22;10246;50.620;7.232;2023-03-03T10:10:47;2.60;5.20
20174;DHT22;10246;50.620;7.232;2023-03-03T10:13:24;2.70;5.30
20174;DHT22;10246;50.620;7.232;2023-03-03T10:16:07;2.70;4.70
20174;DHT22;10246;50.620;7.232;2023-03-03T10:18:41;2.80;4.70
20174;DHT22;10246;50.620;7.232;2023-03-03T10:21:17;2.80;4.10
20174;DHT22;10246;50.620;7.232;2023-03-03T10:23:55;2.70;4.80
20174;DHT22;10246;50.620;7.232;2023-03-03T10:26:46;2.70;4.40
20174;DHT22;10246;50.620;7.232;2023-03-03T10:29:23;2.70;4.50
20174;DHT22;10246;50.620;7.232;2023-03-03T10:32:15;2.70;4.60
20174;DHT22;10246;50.620;7.232;2023-03-03T10:34:59;2.70;5.10
20174;DHT22;10246;50.620;7.232;2023-03-03T10:37:32;2.80;4.30
20174;DHT22;10246;50.620;7.232;2023-03-03T10:40:12;2.70;4.30
20174;DHT22;10246;50.620;7.232;2023-03-03T10:43:10;2.80;4.20
20174;DHT22;10246;50.620;7.232;2023-03-03T10:49:01;2.90;3.40
20174;DHT22;10246;50.620;7.232;2023-03-03T10:51:36;2.90;3.20
20174;DHT22;10246;50.620;7.232;2023-03-03T10:54:19;2.90;3.30
20174;DHT22;10246;50.620;7.232;2023-03-03T10:56:53;3.00;2.70
20174;DHT22;10246;50.620;7.232;2023-03-03T10:59:36;3.10;2.40
20174;DHT22;10246;50.620;7.232;2023-03-03T11:02:14;3.00;2.30
20174;DHT22;10246;50.620;7.232;2023-03-03T11:04:58;3.10;2.50
20174;DHT22;10246;50.620;7.232;2023-03-03T11:07:35;3.20;1.00
20174;DHT22;10246;50.620;7.232;2023-03-03T11:10:18;3.20;1.00
20174;DHT22;10246;50.620;7.232;2023-03-03T11:12:53;3.20;1.20
20174;DHT22;10246;50.620;7.232;2023-03-03T11:16:00;3.10;1.10
20174;DHT22;10246;50.620;7.232;2023-03-03T11:18:34;3.20;1.40
20174;DHT22;10246;50.620;7.232;2023-03-03T11:21:12;3.10;1.40
20174;DHT22;10246;50.620;7.232;2023-03-03T11:23:52;3.10;1.00
20174;DHT22;10246;50.620;7.232;2023-03-03T11:26:37;3.10;1.20
20174;DHT22;10246;50.620;7.232;2023-03-03T11:29:16;3.00;1.70
20174;DHT22;10246;50.620;7.232;2023-03-03T11:31:47;3.10;2.10
20174;DHT22;10246;50.620;7.232;2023-03-03T11:34:26;3.20;1.60
20174;DHT22;10246;50.620;7.232;2023-03-03T11:37:00;3.20;1.60
20174;DHT22;10246;50.620;7.232;2023-03-03T11:39:29;3.40;1.50
20174;DHT22;10246;50.620;7.232;2023-03-03T11:42:03;3.40;1.00
20174;DHT22;10246;50.620;7.232;2023-03-03T11:44:36;3.50;1.00
20174;DHT22;10246;50.620;7.232;2023-03-03T11:47:10;3.50;1.00
20174;DHT22;10246;50.620;7.232;2023-03-03T11:49:42;3.50;1.00
20174;DHT22;10246;50.620;7.232;2023-03-03T11:52:21;3.40;1.00
20174;DHT22;10246;50.620;7.232;2023-03-03T11:54:53;3.40;1.00
20174;DHT22;10246;50.620;7.232;2023-03-03T11:57:22;3.50;1.00
20174;DHT22;10246;50.620;7.232;2023-03-03T11:59:57;3.50;1.00
20174;DHT22;10246;50.620;7.232;2023-03-03T12:02:55;3.60;1.00
20174;DHT22;10246;50.620;7.232;2023-03-03T12:05:34;3.70;1.00
20174;DHT22;10246;50.620;7.232;2023-03-03T12:08:11;3.70;1.00
20174;DHT22;10246;50.620;7.232;2023-03-03T12:10:43;3.70;1.00
20174;DHT22;10246;50.620;7.232;2023-03-03T12:13:20;3.70;1.00
20174;DHT22;10246;50.620;7.232;2023-03-03T12:15:51;3.70;1.00
20174;DHT22;10246;50.620;7.232;2023-03-03T12:18:41;3.70;1.00
20174;DHT22;10246;50.620;7.232;2023-03-03T12:21:19;3.70;1.00
20174;DHT22;10246;50.620;7.232;2023-03-03T12:24:01;3.90;1.00
20174;DHT22;10246;50.620;7.232;2023-03-03T12:26:34;4.00;1.00
20174;DHT22;10246;50.620;7.232;2023-03-03T12:29:09;4.10;1.00
20174;DHT22;10246;50.620;7.232;2023-03-03T12:31:43;4.00;1.00
20174;DHT22;10246;50.620;7.232;2023-03-03T12:34:20;4.00;1.00
20174;DHT22;10246;50.620;7.232;2023-03-03T12:37:02;4.00;1.00
20174;DHT22;10246;50.620;7.232;2023-03-03T12:39:46;3.90;1.00
20174;DHT22;10246;50.620;7.232;2023-03-03T12:42:22;3.90;1.00
20174;DHT22;10246;50.620;7.232;2023-03-03T12:44:56;4.00;1.00
20174;DHT22;10246;50.620;7.232;2023-03-03T12:47:28;4.00;1.00
20174;DHT22;10246;50.620;7.232;2023-03-03T12:50:15;4.00;1.00
20174;DHT22;10246;50.620;7.232;2023-03-03T12:52:51;3.90;1.00
20174;DHT22;10246;50.620;7.232;2023-03-03T12:55:27;4.10;1.00
20174;DHT22;10246;50.620;7.232;2023-03-03T12:58:02;4.20;1.00
20174;DHT22;10246;50.620;7.232;2023-03-03T13:00:42;4.40;1.00
20174;DHT22;10246;50.620;7.232;2023-03-03T13:03:34;4.50;1.00
20174;DHT22;10246;50.620;7.232;2023-03-03T13:06:06;4.40;1.00
20174;DHT22;10246;50.620;7.232;2023-03-03T13:08:54;4.40;1.00
20174;DHT22;10246;50.620;7.232;2023-03-03T13:11:35;4.40;1.00
20174;DHT22;10246;50.620;7.232;2023-03-03T13:14:14;4.50;1.00
20174;DHT22;10246;50.620;7.232;2023-03-03T13:16:48;4.50;1.00
20174;DHT22;10246;50.620;7.232;2023-03-03T13:19:21;4.70;1.00
20174;DHT22;10246;50.620;7.232;2023-03-03T13:21:53;4.90;1.00
20174;DHT22;10246;50.620;7.232;2023-03-03T13:24:25;5.10;1.00
20174;DHT22;10246;50.620;7.232;2023-03-03T13:26:59;5.20;1.00
20174;DHT22;10246;50.620;7.232;2023-03-03T13:29:34;5.10;1.00
20174;DHT22;10246;50.620;7.232;2023-03-03T13:32:09;5.10;1.00
20174;DHT22;10246;50.620;7.232;2023-03-03T13:34:42;5.20;1.00
20174;DHT22;10246;50.620;7.232;2023-03-03T13:37:13;5.40;1.00
20174;DHT22;10246;50.620;7.232;2023-03-03T13:39:52;5.60;1.00
20174;DHT22;10246;50.620;7.232;2023-03-03T13:42:28;5.60;1.00
20174;DHT22;10246;50.620;7.232;2023-03-03T13:44:59;5.70;1.00
20174;DHT22;10246;50.620;7.232;2023-03-03T13:47:33;5.90;1.00
20174;DHT22;10246;50.620;7.232;2023-03-03T13:50:15;6.00;1.00
20174;DHT22;10246;50.620;7.232;2023-03-03T13:52:52;6.10;1.00
20174;DHT22;10246;50.620;7.232;2023-03-03T13:55:25;6.20;1.00
20174;DHT22;10246;50.620;7.232;2023-03-03T13:58:00;6.20;1.00
20174;DHT22;10246;50.620;7.232;2023-03-03T14:00:43;5.90;1.00
20174;DHT22;10246;50.620;7.232;2023-03-03T14:03:46;5.80;1.00
20174;DHT22;10246;50.620;7.232;2023-03-03T14:06:19;5.80;1.00
20174;DHT22;10246;50.620;7.232;2023-03-03T14:09:11;5.90;1.00
20174;DHT22;10246;50.620;7.232;2023-03-03T14:11:45;5.90;1.00
20174;DHT22;10246;50.620;7.232;2023-03-03T14:17:10;6.20;1.00
20174;DHT22;10246;50.620;7.232;2023-03-03T14:19:48;6.20;1.00
20174;DHT22;10246;50.620;7.232;2023-03-03T14:22:19;6.30;1.00
20174;DHT22;10246;50.620;7.232;2023-03-03T14:25:07;6.40;1.00
20174;DHT22;10246;50.620;7.232;2023-03-03T14:27:40;6.70;1.00
20174;DHT22;10246;50.620;7.232;2023-03-03T14:30:27;7.00;1.00
20174;DHT22;10246;50.620;7.232;2023-03-03T14:35:50;6.90;1.00
20174;DHT22;10246;50.620;7.232;2023-03-03T14:38:18;6.70;1.00
20174;DHT22;10246;50.620;7.232;2023-03-03T14:40:46;6.70;1.00
20174;DHT22;10246;50.620;7.232;2023-03-03T14:43:22;6.60;1.00
20174;DHT22;10246;50.620;7.232;2023-03-03T14:45:51;6.40;1.00
20174;DHT22;10246;50.620;7.232;2023-03-03T14:48:21;6.40;1.00
20174;DHT22;10246;50.620;7.232;2023-03-03T14:50:50;6.40;1.00
20174;DHT22;10246;50.620;7.232;2023-03-03T14:53:30;6.30;1.00
20174;DHT22;10246;50.620;7.232;2023-03-03T14:56:15;6.30;1.00
20174;DHT22;10246;50.620;7.232;2023-03-03T14:58:48;6.20;1.00
20174;DHT22;10246;50.620;7.232;2023-03-03T15:01:36;6.30;1.00
20174;DHT22;10246;50.620;7.232;2023-03-03T15:04:04;6.30;1.00
20174;DHT22;10246;50.620;7.232;2023-03-03T15:06:40;6.40;1.00
20174;DHT22;10246;50.620;7.232;2023-03-03T15:09:28;6.40;1.00
20174;DHT22;10246;50.620;7.232;2023-03-03T15:11:59;6.50;1.00
20174;DHT22;10246;50.620;7.232;2023-03-03T15:14:31;6.60;1.00
20174;DHT22;10246;50.620;7.232;2023-03-03T15:17:18;6.50;1.00
20174;DHT22;10246;50.620;7.232;2023-03-03T15:19:53;6.50;1.00
20174;DHT22;10246;50.620;7.232;2023-03-03T15:22:39;6.60;1.00
20174;DHT22;10246;50.620;7.232;2023-03-03T15:25:13;6.70;1.00
20174;DHT22;10246;50.620;7.232;2023-03-03T15:27:47;6.80;1.00
20174;DHT22;10246;50.620;7.232;2023-03-03T15:30:23;6.70;1.00
20174;DHT22;10246;50.620;7.232;2023-03-03T15:32:59;6.60;1.00
20174;DHT22;10246;50.620;7.232;2023-03-03T15:35:35;6.70;1.00
20174;DHT22;10246;50.620;7.232;2023-03-03T15:38:13;6.70;1.00
20174;DHT22;10246;50.620;7.232;2023-03-03T15:40:47;6.70;1.00
20174;DHT22;10246;50.620;7.232;2023-03-03T15:43:21;6.80;1.00
20174;DHT22;10246;50.620;7.232;2023-03-03T15:45:56;6.70;1.00
20174;DHT22;10246;50.620;7.232;2023-03-03T15:48:45;6.80;1.00
20174;DHT22;10246;50.620;7.232;2023-03-03T15:51:37;6.80;1.00
20174;DHT22;10246;50.620;7.232;2023-03-03T15:54:24;6.60;1.00
20174;DHT22;10246;50.620;7.232;2023-03-03T15:56:56;6.40;1.00
20174;DHT22;10246;50.620;7.232;2023-03-03T15:59:47;6.50;1.00
20174;DHT22;10246;50.620;7.232;2023-03-03T16:02:19;6.50;1.00
20174;DHT22;10246;50.620;7.232;2023-03-03T16:04:56;6.40;1.00
20174;DHT22;10246;50.620;7.232;2023-03-03T16:07:41;6.40;1.00
20174;DHT22;10246;50.620;7.232;2023-03-03T16:10:18;6.40;1.00
20174;DHT22;10246;50.620;7.232;2023-03-03T16:12:54;6.40;1.00
20174;DHT22;10246;50.620;7.232;2023-03-03T16:15:36;6.40;1.00
20174;DHT22;10246;50.620;7.232;2023-03-03T16:18:12;6.20;1.00
20174;DHT22;10246;50.620;7.232;2023-03-03T16:20:48;6.30;1.00
20174;DHT22;10246;50.620;7.232;2023-03-03T16:23:24;6.20;1.00
20174;DHT22;10246;50.620;7.232;2023-03-03T16:26:14;6.10;1.00
20174;DHT22;10246;50.620;7.232;2023-03-03T16:28:53;6.00;1.00
20174;DHT22;10246;50.620;7.232;2023-03-03T16:31:26;5.80;1.00
20174;DHT22;10246;50.620;7.232;2023-03-03T16:34:00;5.80;1.00
20174;DHT22;10246;50.620;7.232;2023-03-03T16:36:45;5.70;1.00
20174;DHT22;10246;50.620;7.232;2023-03-03T16:39:18;5.70;1.00
20174;DHT22;10246;50.620;7.232;2023-03-03T16:41:57;5.70;1.00
20174;DHT22;10246;50.620;7.232;2023-03-03T16:44:36;5.60;1.00
20174;DHT22;10246;50.620;7.232;2023-03-03T16:47:15;5.60;1.00
20174;DHT22;10246;50.620;7.232;2023-03-03T16:49:49;5.50;1.00